createdAt,value
2019-04-10T00:00:44.434Z,9.78
2019-04-10T00:03:25.763Z,9.83
2019-04-10T00:05:44.624Z,9.94
2019-04-10T00:08:14.134Z,9.89
2019-04-10T00:10:43.793Z,9.85
2019-04-10T00:13:12.496Z,9.87
2019-04-10T00:15:42.271Z,9.88
2019-04-10T00:18:11.177Z,9.88
2019-04-10T00:20:40.612Z,9.84
2019-04-10T00:23:09.366Z,9.91
2019-04-10T00:25:39.161Z,9.98
2019-04-10T00:28:08.159Z,9.98
2019-04-10T00:30:37.574Z,9.89
2019-04-10T00:33:06.372Z,9.87
2019-04-10T00:35:35.171Z,9.92
2019-04-10T00:38:03.790Z,10.01
2019-04-10T00:40:33.214Z,9.97
2019-04-10T00:43:02.308Z,9.98
2019-04-10T00:45:30.871Z,9.94
2019-04-10T00:47:59.649Z,9.83
2019-04-10T00:50:28.688Z,9.89
2019-04-10T00:52:57.493Z,9.84
2019-04-10T00:55:26.125Z,9.81
2019-04-10T00:57:54.826Z,9.82
2019-04-10T01:00:23.953Z,9.87
2019-04-10T01:02:53.342Z,9.99
2019-04-10T01:05:22.902Z,10.00
2019-04-10T01:07:51.901Z,9.89
2019-04-10T01:10:20.659Z,9.83
2019-04-10T01:12:49.176Z,9.75
2019-04-10T01:15:18.361Z,9.80
2019-04-10T01:17:47.169Z,9.86
2019-04-10T01:20:15.811Z,9.84
2019-04-10T01:22:45.504Z,9.91
2019-04-10T01:25:14.446Z,9.84
2019-04-10T01:27:43.115Z,9.78
2019-04-10T01:30:12.049Z,9.76
2019-04-10T01:32:40.549Z,9.63
2019-04-10T01:35:09.945Z,9.57
2019-04-10T01:37:48.719Z,9.58
2019-04-10T01:40:09.217Z,9.57
2019-04-10T01:42:38.815Z,9.63
2019-04-10T01:45:09.027Z,9.70
2019-04-10T01:47:37.756Z,9.70
2019-04-10T01:50:06.822Z,9.53
2019-04-10T01:52:35.483Z,9.53
2019-04-10T01:55:19.129Z,9.52
2019-04-10T01:57:34.855Z,9.59
2019-04-10T02:00:04.767Z,9.59
2019-04-10T02:02:35.069Z,9.59
2019-04-10T02:05:12.511Z,9.63
2019-04-10T02:07:41.014Z,9.76
2019-04-10T02:10:10.078Z,9.81
2019-04-10T02:12:39.484Z,9.75
2019-04-10T02:15:11.870Z,9.67
2019-04-10T02:17:38.992Z,9.62
2019-04-10T02:20:09.205Z,9.56
2019-04-10T02:22:38.479Z,9.47
2019-04-10T02:25:07.656Z,9.49
2019-04-10T02:27:36.317Z,9.55
2019-04-10T02:30:09.729Z,9.48
2019-04-10T02:32:39.321Z,9.53
2019-04-10T02:35:13.178Z,9.49
2019-04-10T02:37:39.633Z,9.52
2019-04-10T02:40:10.941Z,9.45
2019-04-10T02:42:41.062Z,9.33
2019-04-10T02:45:10.425Z,9.24
2019-04-10T02:47:41.094Z,9.21
2019-04-10T02:50:11.898Z,9.19
2019-04-10T02:52:43.018Z,9.17
2019-04-10T02:55:11.894Z,9.15
2019-04-10T02:57:41.422Z,9.18
2019-04-10T03:00:12.733Z,9.13
2019-04-10T03:02:41.553Z,9.14
2019-04-10T03:05:10.919Z,9.15
2019-04-10T03:07:40.334Z,9.21
2019-04-10T03:10:21.717Z,9.29
2019-04-10T03:12:41.065Z,9.34
2019-04-10T03:15:12.366Z,9.32
2019-04-10T03:17:40.452Z,9.36
2019-04-10T03:20:10.028Z,9.33
2019-04-10T03:22:38.886Z,9.28
2019-04-10T03:25:08.872Z,9.24
2019-04-10T03:27:38.660Z,9.25
2019-04-10T03:30:10.156Z,9.20
2019-04-10T03:32:48.077Z,9.26
2019-04-10T03:35:14.616Z,9.30
2019-04-10T03:37:43.229Z,9.27
2019-04-10T03:40:11.894Z,9.19
2019-04-10T03:42:41.285Z,9.24
2019-04-10T03:45:11.500Z,9.37
2019-04-10T03:47:40.200Z,9.49
2019-04-10T03:50:09.151Z,9.51
2019-04-10T03:52:37.882Z,9.56
2019-04-10T03:55:06.959Z,9.52
2019-04-10T03:57:36.442Z,9.49
2019-04-10T04:00:06.828Z,9.43
2019-04-10T04:02:35.963Z,9.40
2019-04-10T04:05:06.505Z,9.42
2019-04-10T04:07:35.292Z,9.41
2019-04-10T04:10:06.434Z,9.48
2019-04-10T04:12:35.111Z,9.45
2019-04-10T04:15:05.264Z,9.46
2019-04-10T04:17:34.027Z,9.57
2019-04-10T04:20:02.666Z,9.51
2019-04-10T04:22:32.615Z,9.51
2019-04-10T04:25:01.320Z,9.50
2019-04-10T04:27:29.828Z,9.57
2019-04-10T04:29:59.552Z,9.57
2019-04-10T04:32:29.301Z,9.58
2019-04-10T04:34:58.021Z,9.60
2019-04-10T04:37:26.577Z,9.62
2019-04-10T04:39:56.257Z,9.62
2019-04-10T04:42:24.853Z,9.60
2019-04-10T04:44:54.205Z,9.66
2019-04-10T04:47:22.776Z,9.68
2019-04-10T04:49:52.347Z,9.69
2019-04-10T04:52:21.074Z,9.77
2019-04-10T04:54:49.876Z,9.85
2019-04-10T04:57:18.617Z,9.96
2019-04-10T04:59:48.264Z,10.01
2019-04-10T05:02:17.767Z,10.00
2019-04-10T05:04:46.662Z,10.04
2019-04-10T05:07:15.353Z,10.21
2019-04-10T05:09:44.011Z,10.28
2019-04-10T05:12:13.376Z,10.44
2019-04-10T05:14:42.232Z,10.54
2019-04-10T05:17:10.867Z,10.59
2019-04-10T05:19:40.489Z,10.71
2019-04-10T05:22:10.176Z,10.85
2019-04-10T05:24:38.859Z,10.90
2019-04-10T05:27:07.785Z,10.87
2019-04-10T05:29:36.744Z,11.02
2019-04-10T05:32:05.351Z,11.06
2019-04-10T05:34:34.000Z,11.11
2019-04-10T05:37:03.134Z,11.26
2019-04-10T05:39:40.559Z,11.29
2019-04-10T05:42:02.748Z,11.28
2019-04-10T05:44:31.870Z,11.43
2019-04-10T05:47:01.172Z,11.44
2019-04-10T05:49:30.854Z,11.38
2019-04-10T05:51:59.950Z,11.37
2019-04-10T05:54:28.558Z,11.24
2019-04-10T05:56:57.209Z,11.23
2019-04-10T05:59:25.964Z,11.12
2019-04-10T06:01:54.743Z,11.10
2019-04-10T06:04:23.487Z,11.03
2019-04-10T06:06:52.689Z,11.00
2019-04-10T06:09:21.350Z,11.03
2019-04-10T06:11:50.073Z,10.94
2019-04-10T06:14:18.794Z,10.86
2019-04-10T06:16:47.485Z,10.89
2019-04-10T06:19:16.135Z,10.85
2019-04-10T06:21:45.956Z,10.90
2019-04-10T06:24:14.770Z,10.97
2019-04-10T06:26:43.694Z,10.98
2019-04-10T06:29:12.868Z,11.02
2019-04-10T06:31:41.570Z,11.06
2019-04-10T06:34:11.711Z,11.09
2019-04-10T06:36:41.689Z,11.12
2019-04-10T06:39:10.842Z,11.19
2019-04-10T06:41:39.501Z,11.10
2019-04-10T06:44:08.019Z,11.02
2019-04-10T06:46:38.864Z,11.16
2019-04-10T06:49:07.762Z,11.07
2019-04-10T06:51:37.602Z,10.98
2019-04-10T06:54:09.874Z,11.10
2019-04-10T06:56:37.516Z,11.23
2019-04-10T06:59:06.665Z,11.26
2019-04-10T07:01:47.212Z,11.32
2019-04-10T07:04:07.993Z,11.42
2019-04-10T07:06:50.008Z,11.54
2019-04-10T07:09:09.581Z,11.62
2019-04-10T07:11:38.638Z,11.69
2019-04-10T07:14:10.224Z,11.71
2019-04-10T07:16:37.959Z,11.75
2019-04-10T07:19:08.829Z,11.74
2019-04-10T07:21:38.351Z,11.71
2019-04-10T07:24:09.472Z,11.76
2019-04-10T07:26:42.145Z,11.80
2019-04-10T07:29:08.963Z,11.86
2019-04-10T07:31:38.328Z,11.88
2019-04-10T07:34:08.827Z,12.10
2019-04-10T07:36:41.696Z,12.50
2019-04-10T07:39:08.211Z,12.86
2019-04-10T07:41:37.749Z,13.02
2019-04-10T07:44:06.576Z,13.06
2019-04-10T07:46:35.357Z,13.16
2019-04-10T07:49:04.015Z,13.02
2019-04-10T07:51:32.644Z,12.98
2019-04-10T07:54:01.914Z,12.98
2019-04-10T07:56:31.192Z,13.02
2019-04-10T07:59:00.560Z,13.28
2019-04-10T08:01:29.270Z,13.17
2019-04-10T08:03:57.774Z,13.37
2019-04-10T08:06:27.700Z,13.56
2019-04-10T08:08:56.543Z,13.50
2019-04-10T08:11:26.119Z,13.63
2019-04-10T08:13:56.032Z,14.04
2019-04-10T08:16:25.369Z,14.36
2019-04-10T08:18:54.197Z,14.51
2019-04-10T08:21:23.935Z,14.56
2019-04-10T08:23:53.067Z,14.54
2019-04-10T08:26:22.737Z,14.72
2019-04-10T08:28:51.715Z,15.30
2019-04-10T08:31:22.213Z,15.71
2019-04-10T08:33:51.068Z,15.75
2019-04-10T08:36:19.756Z,16.03
2019-04-10T08:38:48.929Z,16.53
2019-04-10T08:41:17.420Z,16.69
2019-04-10T08:43:46.105Z,16.67
2019-04-10T08:46:14.753Z,16.37
2019-04-10T08:48:43.430Z,16.49
2019-04-10T08:51:12.217Z,15.85
2019-04-10T08:53:40.871Z,15.34
2019-04-10T08:56:10.660Z,14.81
2019-04-10T08:58:39.567Z,14.83
2019-04-10T09:01:09.144Z,14.74
2019-04-10T09:03:37.756Z,14.96
2019-04-10T09:06:07.202Z,15.08
2019-04-10T09:08:37.057Z,15.47
2019-04-10T09:11:07.010Z,15.55
2019-04-10T09:13:36.832Z,15.31
2019-04-10T09:16:06.595Z,15.18
2019-04-10T09:18:35.461Z,15.19
2019-04-10T09:21:04.936Z,15.43
2019-04-10T09:23:42.897Z,15.40
2019-04-10T09:26:03.978Z,15.69
2019-04-10T09:28:32.812Z,16.45
2019-04-10T09:31:01.776Z,16.84
2019-04-10T09:33:32.332Z,17.27
2019-04-10T09:36:01.191Z,17.45
2019-04-10T09:38:30.640Z,17.67
2019-04-10T09:40:59.429Z,17.89
2019-04-10T09:43:28.312Z,17.71
2019-04-10T09:45:58.039Z,17.81
2019-04-10T09:48:26.523Z,17.91
2019-04-10T09:50:56.078Z,18.07
2019-04-10T09:53:24.746Z,18.51
2019-04-10T09:55:54.490Z,18.78
2019-04-10T09:58:23.990Z,19.13
2019-04-10T10:00:52.627Z,19.82
2019-04-10T10:03:21.264Z,19.87
2019-04-10T10:05:51.018Z,20.09
2019-04-10T10:08:19.628Z,19.69
2019-04-10T10:10:49.163Z,17.44
2019-04-10T10:13:18.312Z,17.38
2019-04-10T10:15:46.834Z,17.76
2019-04-10T10:18:15.472Z,18.12
2019-04-10T10:20:44.335Z,18.12
2019-04-10T10:23:13.745Z,18.32
2019-04-10T10:25:42.279Z,18.97
2019-04-10T10:28:11.806Z,19.33
2019-04-10T10:30:40.461Z,19.84
2019-04-10T10:33:09.860Z,19.38
2019-04-10T10:35:39.050Z,19.09
2019-04-10T10:38:08.439Z,18.58
2019-04-10T10:40:37.110Z,18.13
2019-04-10T10:43:05.713Z,18.95
2019-04-10T10:45:34.721Z,19.17
2019-04-10T10:48:03.486Z,19.62
2019-04-10T10:50:33.165Z,18.84
2019-04-10T10:53:01.927Z,19.17
2019-04-10T10:55:31.739Z,19.95
2019-04-10T10:58:01.682Z,19.64
2019-04-10T11:00:31.419Z,19.41
2019-04-10T11:03:00.247Z,18.38
2019-04-10T11:05:30.800Z,18.31
2019-04-10T11:07:59.909Z,18.91
2019-04-10T11:10:30.027Z,18.89
2019-04-10T11:12:59.993Z,18.25
2019-04-10T11:15:28.959Z,18.06
2019-04-10T11:17:57.861Z,17.87
2019-04-10T11:20:27.963Z,18.01
2019-04-10T11:22:57.727Z,18.18
2019-04-10T11:25:26.432Z,18.27
2019-04-10T11:27:56.537Z,18.13
2019-04-10T11:30:26.836Z,17.61
2019-04-10T11:32:55.746Z,17.51
2019-04-10T11:35:24.426Z,17.56
2019-04-10T11:37:56.187Z,17.34
2019-04-10T11:40:23.647Z,17.24
2019-04-10T11:42:54.234Z,17.18
2019-04-10T11:45:28.295Z,16.70
2019-04-10T11:47:54.491Z,16.48
2019-04-10T11:50:25.417Z,16.67
2019-04-10T11:52:56.096Z,17.13
2019-04-10T11:55:27.004Z,17.46
2019-04-10T11:57:55.395Z,17.70
2019-04-10T12:00:47.498Z,17.67
2019-04-10T12:03:10.652Z,17.84
2019-04-10T12:05:41.292Z,18.24
2019-04-10T12:13:12.477Z,17.01
2019-04-10T12:15:42.922Z,17.00
2019-04-10T12:18:12.018Z,17.00
2019-04-10T12:20:41.050Z,16.95
2019-04-10T12:23:10.470Z,17.22
2019-04-10T12:25:39.127Z,17.58
2019-04-10T12:28:07.825Z,17.69
2019-04-10T12:30:37.459Z,17.57
2019-04-10T12:33:07.484Z,17.40
2019-04-10T12:35:36.153Z,17.41
2019-04-10T12:38:08.136Z,17.30
2019-04-10T12:40:37.591Z,16.97
2019-04-10T12:43:05.757Z,16.65
2019-04-10T12:45:34.317Z,16.36
2019-04-10T12:48:04.085Z,15.91
2019-04-10T12:50:32.874Z,16.01
2019-04-10T12:53:01.502Z,15.71
2019-04-10T12:55:30.465Z,15.15
2019-04-10T12:58:06.529Z,15.11
2019-04-10T13:00:29.277Z,15.32
2019-04-10T13:02:58.690Z,15.18
2019-04-10T13:05:27.419Z,15.26
2019-04-10T13:07:56.176Z,15.28
2019-04-10T13:10:25.294Z,15.20
2019-04-10T13:12:54.006Z,15.17
2019-04-10T13:15:23.404Z,15.14
2019-04-10T13:17:53.107Z,15.07
2019-04-10T13:20:21.937Z,15.07
2019-04-10T13:22:50.808Z,15.05
2019-04-10T13:25:19.831Z,15.12
2019-04-10T13:27:48.407Z,15.18
2019-04-10T13:30:17.305Z,15.23
2019-04-10T13:32:45.980Z,14.98
2019-04-10T13:35:15.795Z,14.90
2019-04-10T13:37:45.501Z,15.06
2019-04-10T13:40:15.211Z,14.85
2019-04-10T13:42:43.835Z,14.69
2019-04-10T13:45:14.974Z,14.63
2019-04-10T13:47:44.912Z,14.61
2019-04-10T13:50:14.658Z,14.58
2019-04-10T13:52:44.895Z,14.72
2019-04-10T13:55:13.582Z,14.68
2019-04-10T13:57:42.422Z,14.78
2019-04-10T14:00:13.405Z,14.59
2019-04-10T14:02:41.950Z,14.47
2019-04-10T14:05:15.635Z,14.57
2019-04-10T14:07:44.604Z,14.50
2019-04-10T14:10:15.537Z,14.44
2019-04-10T14:12:44.071Z,14.41
2019-04-10T14:15:13.926Z,14.30
2019-04-10T14:17:42.523Z,14.15
2019-04-10T14:20:13.106Z,14.12
2019-04-10T14:22:46.546Z,14.08
2019-04-10T14:25:17.721Z,14.13
2019-04-10T14:27:46.673Z,14.04
2019-04-10T14:30:23.015Z,13.89
2019-04-10T14:32:51.699Z,13.89
2019-04-10T14:35:20.443Z,13.93
2019-04-10T14:37:49.673Z,13.99
2019-04-10T14:40:18.576Z,13.93
2019-04-10T14:42:47.322Z,13.99
2019-04-10T14:45:15.967Z,14.14
2019-04-10T14:47:44.565Z,14.42
2019-04-10T14:50:13.716Z,14.64
2019-04-10T14:52:43.349Z,14.68
2019-04-10T14:55:12.457Z,14.67
2019-04-10T14:57:41.258Z,14.55
2019-04-10T15:00:17.959Z,14.53
2019-04-10T15:02:46.568Z,14.72
2019-04-10T15:05:15.512Z,14.46
2019-04-10T15:07:44.832Z,14.31
2019-04-10T15:10:14.593Z,14.51
2019-04-10T15:12:43.826Z,14.43
2019-04-10T15:15:12.590Z,14.37
2019-04-10T15:17:42.192Z,14.16
2019-04-10T15:20:11.207Z,14.18
2019-04-10T15:22:40.075Z,14.30
2019-04-10T15:25:09.044Z,14.06
2019-04-10T15:27:37.766Z,14.02
2019-04-10T15:30:08.417Z,14.16
2019-04-10T15:32:37.792Z,14.17
2019-04-10T15:35:06.899Z,14.27
2019-04-10T15:37:35.460Z,14.37
2019-04-10T15:40:17.977Z,14.47
2019-04-10T15:42:37.382Z,14.36
2019-04-10T15:45:07.918Z,14.17
2019-04-10T15:47:37.443Z,14.12
2019-04-10T15:50:08.558Z,14.04
2019-04-10T15:52:37.568Z,14.00
2019-04-10T15:55:07.785Z,13.99
2019-04-10T15:57:47.013Z,14.00
2019-04-10T16:00:10.717Z,14.01
2019-04-10T16:02:40.519Z,13.91
2019-04-10T16:05:09.543Z,13.96
2019-04-10T16:07:38.385Z,13.84
2019-04-10T16:10:19.025Z,13.83
2019-04-10T16:12:48.084Z,13.93
2019-04-10T16:15:17.318Z,13.98
2019-04-10T16:18:05.942Z,13.96
2019-04-10T16:20:34.978Z,14.01
2019-04-10T16:23:12.263Z,13.99
2019-04-10T16:25:43.402Z,13.99
2019-04-10T16:28:12.650Z,14.13
2019-04-10T16:30:41.472Z,14.24
2019-04-10T16:33:11.179Z,14.33
2019-04-10T16:35:40.157Z,14.13
2019-04-10T16:38:09.149Z,14.19
2019-04-10T16:40:38.264Z,14.29
2019-04-10T16:43:08.008Z,14.32
2019-04-10T16:45:36.962Z,14.29
2019-04-10T16:48:06.430Z,14.24
2019-04-10T16:50:36.289Z,14.25
2019-04-10T16:53:05.725Z,14.18
2019-04-10T16:55:34.627Z,14.13
2019-04-10T16:58:03.429Z,14.06
2019-04-10T17:00:32.257Z,13.97
2019-04-10T17:03:01.910Z,13.91
2019-04-10T17:05:33.609Z,13.82
2019-04-10T17:08:01.446Z,13.63
2019-04-10T17:10:30.320Z,13.51
2019-04-10T17:12:58.796Z,13.40
2019-04-10T17:15:28.175Z,13.30
2019-04-10T17:17:57.028Z,13.21
2019-04-10T17:20:27.238Z,13.11
2019-04-10T17:22:56.380Z,12.96
2019-04-10T17:25:26.248Z,12.84
2019-04-10T17:27:56.313Z,12.80
2019-04-10T17:30:25.470Z,12.71
2019-04-10T17:32:54.388Z,12.72
2019-04-10T17:35:23.447Z,12.64
2019-04-10T17:37:51.963Z,12.54
2019-04-10T17:40:29.767Z,12.52
2019-04-10T17:42:52.738Z,12.49
2019-04-10T17:45:22.989Z,12.60
2019-04-10T17:47:51.760Z,12.68
2019-04-10T17:50:22.358Z,12.78
2019-04-10T17:52:51.374Z,12.80
2019-04-10T17:55:20.127Z,12.84
2019-04-10T17:57:48.963Z,12.94
2019-04-10T18:00:27.486Z,12.96
2019-04-10T18:02:57.167Z,13.04
2019-04-10T18:05:26.601Z,13.06
2019-04-10T18:07:55.228Z,12.97
2019-04-10T18:10:24.698Z,13.00
2019-04-10T18:12:54.615Z,12.92
2019-04-10T18:15:24.129Z,12.89
2019-04-10T18:17:53.425Z,12.77
2019-04-10T18:20:22.201Z,12.72
2019-04-10T18:22:51.876Z,12.69
2019-04-10T18:25:20.566Z,12.65
2019-04-10T18:27:49.228Z,12.58
2019-04-10T18:30:19.497Z,12.55
2019-04-10T18:32:48.180Z,12.59
2019-04-10T18:35:16.931Z,12.56
2019-04-10T18:37:47.680Z,12.55
2019-04-10T18:40:16.355Z,12.43
2019-04-10T18:42:45.404Z,12.30
2019-04-10T18:45:14.410Z,12.03
2019-04-10T18:47:44.066Z,11.85
2019-04-10T18:50:13.054Z,11.70
2019-04-10T18:52:41.654Z,11.56
2019-04-10T18:55:10.406Z,11.49
2019-04-10T18:57:39.061Z,11.49
2019-04-10T19:00:26.654Z,11.48
2019-04-10T19:03:13.137Z,11.44
2019-04-10T19:05:49.666Z,11.26
2019-04-10T19:08:19.682Z,11.16
2019-04-10T19:10:48.471Z,11.06
2019-04-10T19:13:17.285Z,11.06
2019-04-10T19:15:46.962Z,10.98
2019-04-10T19:18:15.809Z,10.84
2019-04-10T19:20:44.655Z,10.85
2019-04-10T19:23:13.226Z,10.74
2019-04-10T19:25:43.379Z,10.69
2019-04-10T19:28:12.840Z,10.64
2019-04-10T19:30:43.565Z,10.57
2019-04-10T19:33:12.237Z,10.49
2019-04-10T19:35:41.374Z,10.41
2019-04-10T19:38:11.349Z,10.40
2019-04-10T19:40:40.374Z,10.34
2019-04-10T19:43:10.241Z,10.25
2019-04-10T19:45:39.801Z,10.22
2019-04-10T19:48:08.952Z,10.18
2019-04-10T19:50:39.060Z,10.11
2019-04-10T19:53:07.572Z,10.05
2019-04-10T19:55:36.346Z,10.04
2019-04-10T19:58:05.931Z,9.96
2019-04-10T20:00:36.783Z,9.89
2019-04-10T20:03:05.745Z,9.86
2019-04-10T20:05:34.418Z,9.85
2019-04-10T20:08:03.145Z,9.89
2019-04-10T20:10:31.729Z,9.98
2019-04-10T20:13:01.369Z,10.09
2019-04-10T20:15:30.773Z,10.17
2019-04-10T20:18:00.109Z,10.23
2019-04-10T20:20:29.057Z,10.22
2019-04-10T20:22:58.277Z,10.20
2019-04-10T20:25:27.227Z,10.17
2019-04-10T20:27:56.369Z,10.10
2019-04-10T20:30:27.883Z,10.05
2019-04-10T20:32:56.593Z,10.15
2019-04-10T20:35:25.208Z,10.05
2019-04-10T20:37:55.350Z,9.93
2019-04-10T20:40:24.121Z,9.87
2019-04-10T20:42:52.698Z,9.71
2019-04-10T20:45:23.142Z,9.59
2019-04-10T20:47:52.031Z,9.50
2019-04-10T20:50:20.660Z,9.43
2019-04-10T20:52:49.448Z,9.40
2019-04-10T20:55:18.214Z,9.47
2019-04-10T20:57:48.157Z,9.52
2019-04-10T21:00:22.396Z,9.29
2019-04-10T21:02:51.059Z,9.31
2019-04-10T21:05:19.913Z,9.04
2019-04-10T21:07:48.439Z,8.99
2019-04-10T21:10:17.177Z,9.02
2019-04-10T21:12:45.760Z,9.10
2019-04-10T21:15:14.452Z,9.02
2019-04-10T21:17:43.047Z,9.05
2019-04-10T21:20:13.561Z,8.99
2019-04-10T21:22:45.241Z,9.01
2019-04-10T21:25:14.906Z,9.01
2019-04-10T21:27:44.099Z,8.93
2019-04-10T21:30:31.767Z,8.91
2019-04-10T21:33:17.099Z,8.90
2019-04-10T21:35:45.837Z,8.91
2019-04-10T21:38:15.130Z,8.87
2019-04-10T21:40:43.715Z,8.92
2019-04-10T21:43:12.383Z,8.96
2019-04-10T21:45:41.351Z,8.90
2019-04-10T21:48:10.530Z,8.79
2019-04-10T21:50:39.813Z,8.77
2019-04-10T21:53:08.515Z,8.72
2019-04-10T21:55:37.495Z,8.66
2019-04-10T21:58:06.297Z,8.83
2019-04-10T22:00:39.415Z,8.68
2019-04-10T22:03:09.062Z,8.59
2019-04-10T22:05:39.615Z,8.54
2019-04-10T22:08:12.606Z,8.56
2019-04-10T22:10:45.476Z,8.54
2019-04-10T22:13:14.115Z,8.50
2019-04-10T22:15:44.942Z,8.50
2019-04-10T22:18:14.780Z,8.48
2019-04-10T22:20:43.739Z,8.54
2019-04-10T22:23:12.472Z,8.53
2019-04-10T22:25:42.358Z,8.52
2019-04-10T22:28:10.997Z,8.58
2019-04-10T22:30:39.680Z,8.61
2019-04-10T22:33:08.574Z,8.50
2019-04-10T22:35:37.240Z,8.40
2019-04-10T22:38:06.147Z,8.43
2019-04-10T22:40:34.892Z,8.35
2019-04-10T22:43:03.460Z,8.30
2019-04-10T22:45:32.843Z,8.31
2019-04-10T22:48:01.480Z,8.35
2019-04-10T22:50:31.024Z,8.06
2019-04-10T22:52:59.817Z,8.06
2019-04-10T22:55:28.562Z,8.08
2019-04-10T22:57:57.159Z,8.08
2019-04-10T23:00:32.640Z,8.04
2019-04-10T23:03:02.900Z,8.06
2019-04-10T23:05:32.309Z,7.99
2019-04-10T23:08:01.273Z,7.99
2019-04-10T23:10:29.898Z,7.91
2019-04-10T23:13:02.907Z,7.88
2019-04-10T23:15:28.999Z,7.90
2019-04-10T23:17:57.506Z,7.91
2019-04-10T23:20:26.282Z,7.85
2019-04-10T23:22:54.999Z,7.82
2019-04-10T23:25:24.699Z,7.86
2019-04-10T23:27:56.025Z,7.94
2019-04-10T23:30:24.641Z,8.04
2019-04-10T23:32:53.607Z,8.03
2019-04-10T23:35:22.344Z,7.98
2019-04-10T23:37:51.200Z,7.87
2019-04-10T23:40:21.032Z,7.80
2019-04-10T23:43:01.279Z,7.80
2019-04-10T23:45:19.996Z,7.86
2019-04-10T23:47:48.815Z,7.88
2019-04-10T23:50:18.571Z,7.96
2019-04-10T23:52:47.885Z,7.90
2019-04-10T23:55:17.810Z,7.91
2019-04-10T23:57:46.539Z,7.83
